GWALL EGBM-EGLA
Flight info
| Callsign | GWALL |
|---|---|
| Flight time | N/A |
| Altitude | 6000 |
| Route | DCT VIDOK L151 BRUMI N92 DAWLY N864 ABBEW DCT |
| Aircraft | BE58/L-SDFGRY/C |
Departure
| Time | 2026-05-08 11:01 |
|---|---|
| Airport | Tatenhill Airfield (EGBM) |
Arrival
| Time | N/A |
|---|---|
| Airport | Bodmin Airfield (EGLA) |
| Time | Latitude | Longitude | Altitude | Speed | Heading |
|---|---|---|---|---|---|
| 2026-05-08 10:57 | 52.81615 | -1.75675 | 448 ft | 0 kts | 206° |
| 2026-05-08 10:59 | 52.81613 | -1.75680 | 449 ft | 3 kts | 248° |
| 2026-05-08 11:00 | 52.81619 | -1.75691 | 446 ft | 2 kts | 6° |
| 2026-05-08 11:00 | 52.81625 | -1.75686 | 440 ft | 0 kts | 30° |
| 2026-05-08 11:00 | 52.81617 | -1.75641 | 447 ft | 5 kts | 117° |
| 2026-05-08 11:00 | 52.81597 | -1.75583 | 443 ft | 9 kts | 155° |
| 2026-05-08 11:01 | 52.81533 | -1.75774 | 452 ft | 58 kts | 254° |
| 2026-05-08 11:01 | 52.81344 | -1.76871 | 573 ft | 122 kts | 253° |
| 2026-05-08 11:01 | 52.81148 | -1.78218 | 1241 ft | 120 kts | 251° |
| 2026-05-08 11:01 | 52.80687 | -1.79347 | 1739 ft | 123 kts | 202° |
| 2026-05-08 11:02 | 52.79858 | -1.79346 | 2174 ft | 115 kts | 168° |
| 2026-05-08 11:02 | 52.78144 | -1.78755 | 2724 ft | 155 kts | 166° |
| 2026-05-08 11:02 | 52.77028 | -1.78363 | 2783 ft | 171 kts | 166° |
| 2026-05-08 11:03 | 52.75835 | -1.78440 | 2815 ft | 178 kts | 198° |
| 2026-05-08 11:03 | 52.74732 | -1.79274 | 2827 ft | 168 kts | 200° |
| 2026-05-08 11:03 | 52.73697 | -1.80039 | 2822 ft | 160 kts | 200° |
| 2026-05-08 11:03 | 52.72700 | -1.80766 | 2788 ft | 155 kts | 200° |
| 2026-05-08 11:04 | 52.71720 | -1.81477 | 2834 ft | 150 kts | 200° |
| 2026-05-08 11:04 | 52.71124 | -1.81923 | 3074 ft | 135 kts | 200° |
| 2026-05-08 11:04 | 52.70272 | -1.82562 | 3451 ft | 138 kts | 200° |
| 2026-05-08 11:04 | 52.69516 | -1.83576 | 3824 ft | 148 kts | 230° |
| 2026-05-08 11:05 | 52.68871 | -1.84886 | 4216 ft | 146 kts | 216° |
| 2026-05-08 11:05 | 52.68000 | -1.85711 | 4609 ft | 145 kts | 200° |
| 2026-05-08 11:05 | 52.67073 | -1.86381 | 4999 ft | 146 kts | 199° |
| 2026-05-08 11:05 | 52.66135 | -1.87038 | 5385 ft | 148 kts | 198° |
| 2026-05-08 11:06 | 52.65174 | -1.87699 | 5782 ft | 152 kts | 199° |
| 2026-05-08 11:06 | 52.64191 | -1.88377 | 6178 ft | 155 kts | 199° |
| 2026-05-08 11:06 | 52.63191 | -1.89065 | 6569 ft | 156 kts | 199° |
| 2026-05-08 11:06 | 52.62186 | -1.89756 | 6943 ft | 157 kts | 199° |
| 2026-05-08 11:07 | 52.61174 | -1.90452 | 7316 ft | 158 kts | 199° |
| 2026-05-08 11:07 | 52.60151 | -1.91154 | 7700 ft | 160 kts | 200° |
| 2026-05-08 11:07 | 52.59123 | -1.91861 | 8086 ft | 160 kts | 200° |
| 2026-05-08 11:07 | 52.58092 | -1.92570 | 8471 ft | 161 kts | 201° |
| 2026-05-08 11:08 | 52.57055 | -1.93281 | 8858 ft | 162 kts | 201° |
| 2026-05-08 11:08 | 52.56012 | -1.93995 | 9254 ft | 162 kts | 201° |
| 2026-05-08 11:08 | 52.54971 | -1.94709 | 9655 ft | 162 kts | 202° |
| 2026-05-08 11:08 | 52.53927 | -1.95424 | 10049 ft | 163 kts | 202° |
| 2026-05-08 11:09 | 52.52879 | -1.96141 | 10417 ft | 163 kts | 202° |
| 2026-05-08 11:09 | 52.51840 | -1.96852 | 10787 ft | 161 kts | 202° |
| 2026-05-08 11:09 | 52.50811 | -1.97556 | 11155 ft | 160 kts | 202° |
| 2026-05-08 11:09 | 52.49788 | -1.98256 | 11528 ft | 159 kts | 202° |
| 2026-05-08 11:10 | 52.48770 | -1.98951 | 11904 ft | 159 kts | 202° |
| 2026-05-08 11:10 | 52.47725 | -1.99665 | 12076 ft | 171 kts | 202° |